Time;durP1;ratioP1;P1;durP2;ratioP2;P2;SDS_P1;SDS_P2;PMS_P1;PMS_P2;Temp;Humidity;BMP_temperature;BMP_pressure;BME280_temperature;BME280_humidity;BME280_pressure;Samples;Min_cycle;Max_cycle;Signal;HPM_P1;HPM_P2
2022/01/07 00:02:21;;;;;;;9.98;3.42;;;;;;;14.05;50.18;101299.63;5033587;28;20033;-64
2022/01/07 00:04:47;;;;;;;8.13;3.10;;;;;;;14.05;50.38;101306.53;5033897;28;20030;-63
2022/01/07 00:07:12;;;;;;;10.98;3.50;;;;;;;14.04;50.33;101292.69;5034134;28;20029;-64
2022/01/07 00:09:37;;;;;;;8.57;3.35;;;;;;;14.04;50.34;101295.25;5034077;28;20372;-64
2022/01/07 00:12:06;;;;;;;9.50;4.20;;;;;;;14.04;50.08;101289.22;5034403;28;20036;-65
2022/01/07 00:14:32;;;;;;;9.18;3.95;;;;;;;14.04;50.03;101284.91;5033937;28;20091;-65
2022/01/07 00:16:57;;;;;;;8.23;3.45;;;;;;;14.04;50.32;101281.44;5034035;28;20743;-64
2022/01/07 00:19:23;;;;;;;9.10;3.10;;;;;;;14.04;50.38;101284.91;5034242;28;20068;-64
2022/01/07 00:21:48;;;;;;;8.32;3.35;;;;;;;14.04;50.27;101278.84;5024816;28;20109;-64
2022/01/07 00:24:14;;;;;;;7.53;3.53;;;;;;;14.02;50.24;101255.50;5034209;28;20025;-65
2022/01/07 00:26:39;;;;;;;7.40;3.33;;;;;;;14.03;50.17;101258.94;5034404;28;20037;-65
2022/01/07 00:29:05;;;;;;;9.48;3.90;;;;;;;14.02;50.58;101271.06;5033935;28;20025;-65
2022/01/07 00:31:30;;;;;;;11.27;3.63;;;;;;;14.01;50.33;101256.34;5033950;28;20037;-64
2022/01/07 00:33:55;;;;;;;9.13;4.03;;;;;;;14.02;50.24;101249.44;5033679;28;20467;-64
2022/01/07 00:36:21;;;;;;;7.40;3.22;;;;;;;14.00;50.26;101252.84;5033808;28;20041;-64
2022/01/07 00:38:46;;;;;;;7.47;3.60;;;;;;;14.00;50.21;101257.16;5034181;28;20034;-65
2022/01/07 00:41:11;;;;;;;8.20;3.20;;;;;;;13.99;50.30;101245.06;5034010;28;20025;-65
2022/01/07 00:43:37;;;;;;;6.43;3.00;;;;;;;13.99;50.38;101234.69;5024236;28;20029;-65
2022/01/07 00:46:02;;;;;;;7.82;3.33;;;;;;;13.99;50.34;101229.50;5033890;28;20105;-65
2022/01/07 00:48:28;;;;;;;9.00;2.97;;;;;;;13.98;50.32;101213.09;5034296;28;20049;-65
2022/01/07 00:50:53;;;;;;;7.47;3.17;;;;;;;13.98;50.38;101217.38;5033704;28;20084;-65
2022/01/07 00:53:19;;;;;;;9.32;3.40;;;;;;;13.97;50.36;101205.28;5034030;28;20037;-65
2022/01/07 00:55:45;;;;;;;9.27;3.55;;;;;;;13.96;50.64;101199.22;5033865;28;20036;-66
2022/01/07 00:58:10;;;;;;;10.52;3.75;;;;;;;13.96;50.39;101190.56;5033829;28;20052;-65
2022/01/07 01:00:36;;;;;;;8.63;3.38;;;;;;;13.96;50.48;101188.00;5035084;28;20472;-64
2022/01/07 01:03:02;;;;;;;8.50;3.25;;;;;;;13.96;50.34;101177.63;5038149;28;20476;-65
2022/01/07 01:05:28;;;;;;;7.20;3.30;;;;;;;13.95;50.32;101179.31;5029103;28;20032;-65
2022/01/07 01:07:54;;;;;;;8.82;3.45;;;;;;;13.95;50.39;101181.06;5038352;28;20032;-65
2022/01/07 01:10:22;;;;;;;8.25;3.08;;;;;;;13.94;50.62;101181.88;5037837;28;20037;-66
2022/01/07 01:12:48;;;;;;;6.45;3.15;;;;;;;13.94;50.50;101175.00;5038292;28;20040;-65
2022/01/07 01:15:16;;;;;;;7.60;3.22;;;;;;;13.94;50.40;101174.09;5036983;28;20120;-65
2022/01/07 01:17:41;;;;;;;;;;;;;;;13.94;51.22;101168.94;5037888;28;20025;-65
2022/01/07 01:20:09;;;;;;;8.93;3.13;;;;;;;13.93;50.43;101167.16;5036667;28;19963;-65
2022/01/07 01:22:35;;;;;;;7.05;2.67;;;;;;;13.92;50.73;101161.13;5036963;28;20036;-65
2022/01/07 01:25:01;;;;;;;8.23;3.30;;;;;;;13.92;50.66;101158.53;5037305;28;20483;-65
2022/01/07 01:27:27;;;;;;;8.57;3.50;;;;;;;13.91;50.62;101149.00;5019524;28;20037;-65
2022/01/07 01:29:52;;;;;;;8.13;3.03;;;;;;;13.91;50.64;101148.16;5037258;28;20140;-66
2022/01/07 01:32:18;;;;;;;7.03;3.17;;;;;;;13.90;50.37;101144.66;5036738;28;20112;-66
2022/01/07 01:34:43;;;;;;;9.35;2.95;;;;;;;13.91;50.46;101154.19;5037208;28;20130;-66
2022/01/07 01:37:09;;;;;;;8.30;2.75;;;;;;;13.91;50.46;101148.16;5036806;28;20049;-66
2022/01/07 01:39:34;;;;;;;8.15;2.80;;;;;;;13.91;50.56;101142.97;5036985;28;20037;-66
2022/01/07 01:42:00;;;;;;;6.05;2.97;;;;;;;13.90;50.57;101142.06;5036870;28;20029;-66
2022/01/07 01:44:26;;;;;;;7.95;2.85;;;;;;;13.90;50.35;101141.22;5036554;28;20033;-64
2022/01/07 01:46:51;;;;;;;7.00;3.00;;;;;;;13.90;50.46;101130.84;5019135;28;20436;-66
2022/01/07 01:49:17;;;;;;;7.45;2.88;;;;;;;13.90;50.50;101120.47;5037039;28;20422;-66
2022/01/07 01:51:42;;;;;;;7.38;2.83;;;;;;;13.90;50.47;101120.47;5037056;28;20460;-66
2022/01/07 01:54:08;;;;;;;10.65;3.42;;;;;;;13.88;50.47;101111.78;5036734;28;20043;-66
2022/01/07 01:56:33;;;;;;;7.82;3.00;;;;;;;13.89;50.67;101100.59;5018948;28;20033;-66
2022/01/07 01:58:59;;;;;;;5.38;2.58;;;;;;;13.87;50.57;101099.72;5036589;28;20057;-65
2022/01/07 02:01:25;;;;;;;8.23;3.15;;;;;;;13.87;50.60;101097.13;5036401;28;20025;-65
2022/01/07 02:03:50;;;;;;;5.85;2.67;;;;;;;13.87;50.46;101097.13;5036669;28;20440;-66
2022/01/07 02:06:16;;;;;;;6.13;2.58;;;;;;;13.87;50.53;101097.13;5036532;28;20061;-66
2022/01/07 02:08:41;;;;;;;9.00;2.65;;;;;;;13.87;50.61;101097.97;5036342;28;20052;-65
2022/01/07 02:11:07;;;;;;;6.22;2.38;;;;;;;13.87;50.64;101090.19;5018706;28;20030;-65
2022/01/07 02:13:32;;;;;;;8.43;2.83;;;;;;;13.87;50.65;101091.94;5035055;28;20091;-65
2022/01/07 02:15:58;;;;;;;6.68;2.47;;;;;;;13.86;50.69;101088.44;5036017;28;20065;-65
2022/01/07 02:18:24;;;;;;;5.18;2.17;;;;;;;13.86;50.68;101093.63;5036228;28;20022;-66
2022/01/07 02:20:49;;;;;;;8.05;2.58;;;;;;;13.86;50.60;101092.78;5036063;28;20034;-66
2022/01/07 02:23:18;;;;;;;5.35;2.30;;;;;;;13.85;50.69;101091.03;5036201;28;20108;-65
2022/01/07 02:25:45;;;;;;;6.63;2.60;;;;;;;13.85;50.65;101086.69;5018322;28;20173;-66
2022/01/07 02:28:12;;;;;;;8.95;2.70;;;;;;;13.85;50.45;101085.84;5035887;28;20339;-65
2022/01/07 02:30:38;;;;;;;5.03;2.33;;;;;;;13.85;50.53;101078.06;5035861;28;20037;-65
2022/01/07 02:33:03;;;;;;;7.45;2.53;;;;;;;13.85;50.62;101081.50;5035939;28;20037;-65
2022/01/07 02:35:31;;;;;;;7.95;2.80;;;;;;;13.85;50.63;101080.66;5018501;28;20387;-65
2022/01/07 02:37:57;;;;;;;6.25;2.42;;;;;;;13.85;50.53;101080.66;5035856;28;20524;-65
2022/01/07 02:40:23;;;;;;;6.75;2.67;;;;;;;13.83;50.64;101068.53;5035913;28;20121;-66
2022/01/07 02:42:48;;;;;;;5.70;2.50;;;;;;;13.84;50.51;101072.03;5035922;28;20034;-65
2022/01/07 02:45:14;;;;;;;6.32;2.15;;;;;;;13.84;50.49;101059.06;5035588;28;20167;-66
2022/01/07 02:47:54;;;;;;;6.80;2.63;;;;;;;13.85;50.41;101067.69;5035805;28;20029;-65
2022/01/07 02:50:35;;;;;;;4.10;2.45;;;;;;;13.83;50.80;101068.53;5036018;28;20029;-65
2022/01/07 02:53:03;;;;;;;6.18;2.47;;;;;;;13.82;50.52;101069.38;5035622;28;20037;-66
2022/01/07 02:55:28;;;;;;;5.85;2.00;;;;;;;13.85;50.50;101065.09;5035519;28;20033;-66
2022/01/07 02:57:54;;;;;;;7.97;2.17;;;;;;;13.83;50.48;101057.31;5035642;28;20357;-66
2022/01/07 03:00:21;;;;;;;4.90;2.20;;;;;;;13.83;50.47;101055.59;5035530;28;20380;-66
2022/01/07 03:02:49;;;;;;;4.80;2.10;;;;;;;13.83;50.60;101052.13;5017974;28;20034;-67
2022/01/07 03:05:14;;;;;;;5.22;2.38;;;;;;;13.82;50.69;101051.25;5035336;28;20135;-68
2022/01/07 03:07:40;;;;;;;6.95;2.45;;;;;;;13.81;50.31;101041.75;5035375;28;20116;-69
2022/01/07 03:10:07;;;;;;;5.32;2.38;;;;;;;13.81;50.65;101049.50;5035121;28;20124;-69
2022/01/07 03:12:33;;;;;;;5.07;2.53;;;;;;;13.81;50.60;101039.16;5035065;28;20498;-69
2022/01/07 03:14:58;;;;;;;5.80;2.30;;;;;;;13.81;50.64;101044.34;5035223;28;20524;-68
2022/01/07 03:17:24;;;;;;;4.53;2.03;;;;;;;13.81;50.43;101027.91;5035405;28;20040;-69
2022/01/07 03:19:49;;;;;;;5.38;2.40;;;;;;;13.81;50.69;101033.97;5035118;28;20372;-69
2022/01/07 03:22:15;;;;;;;8.82;2.08;;;;;;;13.80;50.54;101021.84;5034930;28;20112;-69
2022/01/07 03:24:40;;;;;;;4.40;1.90;;;;;;;13.80;50.67;101027.03;5034796;28;20038;-68
2022/01/07 03:27:06;;;;;;;5.32;2.30;;;;;;;13.80;50.61;101027.03;5034818;28;20036;-67
2022/01/07 03:29:33;;;;;;;5.07;1.92;;;;;;;13.80;50.63;101021.84;5034925;28;20033;-68
2022/01/07 03:31:58;;;;;;;7.05;2.10;;;;;;;13.80;50.43;101016.69;5034626;28;20037;-68
2022/01/07 03:34:23;;;;;;;7.72;2.35;;;;;;;13.79;50.67;101014.94;5034463;28;20040;-68
2022/01/07 03:36:49;;;;;;;5.40;1.90;;;;;;;13.79;50.65;101014.06;5034327;28;20507;-68
2022/01/07 03:39:14;;;;;;;5.32;2.35;;;;;;;13.79;50.71;101020.09;5034596;28;20428;-68
2022/01/07 03:41:40;;;;;;;6.55;2.08;;;;;;;13.77;50.69;101016.59;5034236;28;20052;-66
2022/01/07 03:44:05;;;;;;;8.63;2.63;;;;;;;13.79;50.55;101014.94;5034619;28;20025;-66
2022/01/07 03:46:30;;;;;;;6.32;2.40;;;;;;;13.77;50.52;101011.41;5016852;28;20041;-67
2022/01/07 03:48:56;;;;;;;8.15;2.30;;;;;;;13.78;50.65;101007.13;5034621;28;20489;-68
2022/01/07 03:51:21;;;;;;;7.63;2.50;;;;;;;13.76;50.72;101009.69;5034456;28;20041;-68
2022/01/07 03:53:47;;;;;;;4.63;1.90;;;;;;;13.76;50.52;100991.56;5034135;28;20116;-67
2022/01/07 03:56:17;;;;;;;5.00;2.20;;;;;;;13.76;50.61;100988.97;5034411;28;20030;-67
2022/01/07 03:58:43;;;;;;;6.53;2.22;;;;;;;13.76;50.57;100983.78;5034349;28;20387;-68
2022/01/07 04:01:09;;;;;;;6.80;1.98;;;;;;;13.75;50.53;100976.84;5034385;28;20116;-67
2022/01/07 04:03:34;;;;;;;5.93;2.13;;;;;;;13.74;50.72;100976.84;5034437;28;20105;-69
2022/01/07 04:06:00;;;;;;;3.80;1.92;;;;;;;13.75;50.55;100975.97;5034090;28;20025;-68
2022/01/07 04:08:25;;;;;;;4.50;1.85;;;;;;;13.75;50.63;100974.28;5034089;28;20108;-68
2022/01/07 04:10:51;;;;;;;5.30;2.38;;;;;;;13.76;50.60;100969.94;5033765;28;20041;-68
2022/01/07 04:13:17;;;;;;;4.53;1.83;;;;;;;13.74;50.64;100969.94;5033791;28;20045;-67
2022/01/07 04:15:42;;;;;;;4.78;1.98;;;;;;;13.72;50.51;100963.84;5034209;28;20068;-68
2022/01/07 04:18:07;;;;;;;7.50;2.72;;;;;;;13.74;50.92;100969.06;5016519;28;20029;-68
2022/01/07 04:20:35;;;;;;;5.57;1.77;;;;;;;13.73;50.56;100973.34;5034099;28;20041;-69
2022/01/07 04:23:01;;;;;;;;;;;;;;;13.73;51.09;100973.34;5034547;28;20033;-69
2022/01/07 04:25:27;;;;;;;5.35;1.95;;;;;;;13.73;50.55;100972.50;5032504;28;20275;-67
2022/01/07 04:27:59;;;;;;;5.63;2.10;;;;;;;13.72;50.58;100969.00;5033565;28;20438;-69
2022/01/07 04:30:29;;;;;;;5.57;1.90;;;;;;;13.71;50.74;100969.88;5033937;28;20057;-68
2022/01/07 04:32:54;;;;;;;5.95;2.08;;;;;;;13.71;50.64;100969.88;5033414;28;20033;-69
2022/01/07 04:35:20;;;;;;;4.95;2.10;;;;;;;13.71;50.61;100963.81;5033257;28;20032;-69
2022/01/07 04:37:46;;;;;;;3.70;1.58;;;;;;;13.70;50.71;100965.53;5033745;28;20053;-68
2022/01/07 04:40:13;;;;;;;4.65;1.80;;;;;;;13.71;50.61;100966.41;5033979;28;20069;-67
2022/01/07 04:42:39;;;;;;;4.25;1.70;;;;;;;13.70;50.60;100962.94;5033756;28;20048;-70
2022/01/07 04:45:06;;;;;;;5.32;2.10;;;;;;;13.70;50.70;100968.13;5033719;28;20464;-69
2022/01/07 04:47:32;;;;;;;5.38;2.03;;;;;;;13.69;50.87;100966.38;5034001;28;20227;-69
2022/01/07 04:49:58;;;;;;;5.13;1.92;;;;;;;13.69;50.59;100963.78;5033876;28;20105;-68
2022/01/07 04:52:23;;;;;;;4.75;2.00;;;;;;;13.70;50.78;100962.06;5015933;28;20128;-69
2022/01/07 04:54:49;;;;;;;3.83;1.95;;;;;;;13.69;50.80;100957.75;5033508;28;20117;-67
2022/01/07 04:57:14;;;;;;;4.60;1.90;;;;;;;13.70;50.68;100956.88;5033536;28;20033;-68
2022/01/07 04:59:39;;;;;;;3.55;1.83;;;;;;;13.68;50.59;100949.09;5033550;28;20040;-68
2022/01/07 05:02:06;;;;;;;3.90;1.85;;;;;;;13.69;50.53;100947.38;5033314;28;20060;-68
2022/01/07 05:04:31;;;;;;;4.45;1.88;;;;;;;13.69;50.78;100950.84;5033424;28;20472;-68
2022/01/07 05:06:57;;;;;;;2.90;1.45;;;;;;;13.68;50.77;100946.50;5033369;28;20033;-68
2022/01/07 05:09:22;;;;;;;3.72;1.67;;;;;;;13.68;50.70;100950.81;5033247;28;20435;-66
2022/01/07 05:11:50;;;;;;;3.38;1.63;;;;;;;13.67;50.64;100942.16;5033086;28;20083;-67
2022/01/07 05:14:16;;;;;;;4.63;1.80;;;;;;;13.66;50.89;100936.13;5033177;28;20088;-68
2022/01/07 05:16:42;;;;;;;2.85;1.35;;;;;;;13.67;50.89;100934.38;5033294;28;20029;-67
2022/01/07 05:19:09;;;;;;;4.50;1.73;;;;;;;13.66;50.79;100933.53;5033201;28;20038;-66
2022/01/07 05:21:35;;;;;;;3.83;1.80;;;;;;;13.66;50.70;100928.34;5033407;28;20471;-68
2022/01/07 05:24:01;;;;;;;3.75;1.90;;;;;;;13.66;50.77;100936.13;5015269;28;20041;-68
2022/01/07 05:26:27;;;;;;;3.55;1.40;;;;;;;13.65;50.86;100934.38;5033302;28;20038;-68
2022/01/07 05:28:52;;;;;;;3.88;1.80;;;;;;;13.68;50.61;100932.69;5033548;28;20034;-69
2022/01/07 05:31:19;;;;;;;4.32;1.58;;;;;;;13.66;50.73;100927.50;5033248;28;20491;-68
2022/01/07 05:33:45;;;;;;;5.23;2.10;;;;;;;13.65;50.80;100928.31;5033182;28;20037;-68
2022/01/07 05:36:10;;;;;;;3.35;1.63;;;;;;;13.66;50.61;100930.06;5033409;28;20287;-68
2022/01/07 05:38:36;;;;;;;3.22;1.65;;;;;;;13.65;50.33;100930.91;5015163;28;20496;-68
2022/01/07 05:41:01;;;;;;;3.03;1.67;;;;;;;13.65;50.85;100923.16;5033084;28;20071;-69
2022/01/07 05:43:28;;;;;;;3.88;1.88;;;;;;;13.65;50.71;100923.16;5015584;28;20594;-68
2022/01/07 05:45:54;;;;;;;4.40;1.70;;;;;;;13.64;50.76;100921.41;5033170;28;20483;-68
2022/01/07 05:48:19;;;;;;;4.13;1.63;;;;;;;13.63;50.76;100925.72;5036569;28;20279;-69
2022/01/07 05:50:44;;;;;;;5.13;1.83;;;;;;;13.64;50.66;100924.84;5036762;28;20041;-69
2022/01/07 05:53:10;;;;;;;4.15;1.75;;;;;;;13.63;50.87;100920.53;5036607;28;20472;-66
2022/01/07 05:55:35;;;;;;;3.58;1.70;;;;;;;13.64;50.66;100923.97;5036514;28;20084;-68
2022/01/07 05:58:01;;;;;;;3.97;1.85;;;;;;;13.64;50.65;100916.22;5037073;28;20045;-68
2022/01/07 06:00:26;;;;;;;4.75;1.92;;;;;;;13.62;50.75;100908.44;5036660;28;20034;-69
2022/01/07 06:02:51;;;;;;;6.88;1.92;;;;;;;13.64;50.65;100911.91;5036533;28;20038;-68
2022/01/07 06:05:17;;;;;;;3.63;1.90;;;;;;;13.64;50.88;100911.03;5036776;28;20111;-68
2022/01/07 06:07:42;;;;;;;5.97;1.90;;;;;;;13.63;50.70;100914.47;5036244;28;20026;-68
2022/01/07 06:10:09;;;;;;;4.95;1.90;;;;;;;13.63;50.79;100914.47;5036026;28;20034;-68
2022/01/07 06:12:34;;;;;;;6.13;1.92;;;;;;;13.63;50.79;100909.28;5036057;28;20029;-68
2022/01/07 06:15:00;;;;;;;4.97;1.77;;;;;;;13.61;50.70;100919.63;5036352;28;20044;-68
2022/01/07 06:17:26;;;;;;;5.22;2.22;;;;;;;13.63;50.79;100919.63;5036474;28;20383;-68
2022/01/07 06:19:51;;;;;;;3.28;1.83;;;;;;;13.63;50.75;100919.63;5036159;28;20116;-68
2022/01/07 06:22:17;;;;;;;4.65;1.85;;;;;;;13.62;50.68;100926.56;5035942;28;20040;-68
2022/01/07 06:24:43;;;;;;;4.35;1.80;;;;;;;13.62;50.84;100923.97;5035678;28;20029;-66
2022/01/07 06:27:09;;;;;;;4.75;2.13;;;;;;;13.62;50.70;100923.06;5036173;28;20065;-68
2022/01/07 06:29:35;;;;;;;3.03;1.50;;;;;;;13.61;50.76;100921.34;5035133;28;20021;-68
2022/01/07 06:32:00;;;;;;;4.18;2.15;;;;;;;13.62;50.74;100923.06;5036003;28;20044;-68
2022/01/07 06:34:25;;;;;;;5.18;2.30;;;;;;;13.62;50.70;100923.06;5001794;28;20037;-68
2022/01/07 06:36:51;;;;;;;4.47;1.98;;;;;;;13.62;50.63;100923.06;5035603;28;20171;-67
2022/01/07 06:39:22;;;;;;;7.43;2.22;;;;;;;13.61;50.75;100918.75;5037726;28;20037;-66
2022/01/07 06:41:48;;;;;;;5.85;2.10;;;;;;;13.62;50.60;100928.25;5036612;28;20396;-68
2022/01/07 06:44:14;;;;;;;4.15;2.00;;;;;;;13.61;50.75;100926.53;5035688;28;20038;-67
2022/01/07 06:46:39;;;;;;;4.90;2.35;;;;;;;13.61;50.73;100922.22;5035779;28;20091;-67
2022/01/07 06:49:05;;;;;;;3.65;1.85;;;;;;;13.59;50.69;100918.72;5035578;28;20383;-66
2022/01/07 06:51:31;;;;;;;3.33;1.73;;;;;;;13.59;50.74;100918.72;5035678;28;20088;-67
2022/01/07 06:53:57;;;;;;;5.68;1.90;;;;;;;13.60;50.71;100919.59;5035274;28;20033;-65
2022/01/07 06:56:23;;;;;;;6.05;2.00;;;;;;;13.60;50.59;100927.38;5035539;28;20034;-67
2022/01/07 06:58:49;;;;;;;4.85;2.00;;;;;;;13.59;50.67;100918.72;5034921;28;20040;-67
2022/01/07 07:01:14;;;;;;;3.92;1.77;;;;;;;13.59;50.62;100917.84;5035534;28;20033;-67
2022/01/07 07:03:40;;;;;;;6.57;2.42;;;;;;;13.58;50.52;100910.91;5035630;28;20037;-68
2022/01/07 07:06:06;;;;;;;3.83;2.10;;;;;;;13.58;50.85;100921.28;5035059;28;20095;-68
2022/01/07 07:08:32;;;;;;;3.95;1.95;;;;;;;13.58;50.87;100923.88;5034651;28;20033;-67
2022/01/07 07:10:57;;;;;;;5.20;2.00;;;;;;;13.59;50.78;100930.78;5034351;28;20037;-68
2022/01/07 07:13:22;;;;;;;5.20;2.03;;;;;;;13.58;50.72;100926.44;5035219;28;20037;-68
2022/01/07 07:15:48;;;;;;;4.03;2.05;;;;;;;13.58;50.79;100926.44;5035282;28;20040;-68
2022/01/07 07:18:14;;;;;;;5.50;2.00;;;;;;;13.58;50.85;100934.22;5017188;28;20431;-68
2022/01/07 07:20:40;;;;;;;4.15;2.05;;;;;;;13.57;50.81;100930.78;5034921;28;20475;-68
2022/01/07 07:23:05;;;;;;;4.55;2.10;;;;;;;13.57;51.01;100935.06;5034530;28;20067;-68
2022/01/07 07:25:31;;;;;;;5.28;2.20;;;;;;;13.57;50.94;100940.25;5016539;28;20064;-68
2022/01/07 07:27:56;;;;;;;5.43;2.35;;;;;;;13.58;50.97;100936.81;5031350;28;20420;-68
2022/01/07 07:30:22;;;;;;;5.25;2.10;;;;;;;13.58;50.83;100942.00;5033983;28;20446;-66
2022/01/07 07:32:50;;;;;;;4.78;1.80;;;;;;;13.57;50.93;100937.66;5034169;28;20083;-68
2022/01/07 07:37:41;;;;;;;4.68;2.40;;;;;;;13.57;51.04;100935.06;5034309;28;20468;-68
2022/01/07 07:40:07;;;;;;;3.85;1.83;;;;;;;13.56;51.11;100934.19;5032623;28;20463;-66
2022/01/07 07:42:33;;;;;;;6.25;2.30;;;;;;;13.57;51.04;100929.88;5034399;28;20037;-67
2022/01/07 07:44:58;;;;;;;4.88;1.92;;;;;;;13.59;51.09;100928.19;5032809;28;20408;-68
2022/01/07 07:47:24;;;;;;;5.13;2.15;;;;;;;13.62;50.84;100923.97;5032838;28;20112;-67
2022/01/07 07:49:49;;;;;;;6.80;2.53;;;;;;;13.63;50.92;100919.63;5034352;28;20128;-67
2022/01/07 07:52:15;;;;;;;5.70;2.70;;;;;;;13.66;51.09;100924.91;5016672;28;20045;-66
2022/01/07 07:54:40;;;;;;;5.68;2.58;;;;;;;13.68;50.72;100907.66;5033943;28;20037;-66
2022/01/07 07:57:06;;;;;;;4.82;2.30;;;;;;;13.69;50.92;100924.94;5033713;28;20037;-67
2022/01/07 07:59:31;;;;;;;3.88;2.00;;;;;;;13.71;50.81;100919.78;5033851;28;20036;-68
2022/01/07 08:01:57;;;;;;;5.55;2.20;;;;;;;13.71;50.58;100928.44;5033831;28;20042;-68
2022/01/07 08:04:22;;;;;;;4.68;2.00;;;;;;;13.73;50.63;100931.06;5031243;28;20032;-68
2022/01/07 08:06:48;;;;;;;4.93;2.10;;;;;;;13.73;50.64;100926.72;5033802;28;20036;-68
2022/01/07 08:09:14;;;;;;;5.55;2.38;;;;;;;13.74;50.73;100925.03;5033657;28;20414;-67
2022/01/07 08:11:51;;;;;;;4.75;2.13;;;;;;;13.75;50.73;100924.16;5033534;28;20062;-68
2022/01/07 08:17:04;;;;;;;4.53;2.13;;;;;;;13.73;50.64;100916.38;5032893;28;20091;-68
2022/01/07 08:19:30;;;;;;;3.60;2.00;;;;;;;13.72;50.72;100911.16;5030651;28;20030;-68
2022/01/07 08:21:55;;;;;;;4.97;2.33;;;;;;;13.71;50.63;100912.00;5033391;28;20084;-67
2022/01/07 08:24:21;;;;;;;6.53;2.75;;;;;;;13.70;50.57;100910.25;5033946;28;20087;-68
2022/01/07 08:26:46;;;;;;;7.10;2.20;;;;;;;13.69;50.79;100912.00;5016514;28;20452;-69
2022/01/07 08:29:13;;;;;;;4.28;2.00;;;;;;;13.69;50.66;100908.53;5016149;28;20156;-68
2022/01/07 08:36:48;;;;;;;4.43;1.83;;;;;;;13.66;50.79;100914.53;5033643;28;20044;-68
2022/01/07 08:39:13;;;;;;;4.43;2.00;;;;;;;13.65;50.74;100912.78;5033428;28;20399;-68
2022/01/07 08:41:40;;;;;;;4.18;1.92;;;;;;;13.64;50.75;100917.06;5033830;28;20041;-68
2022/01/07 08:44:06;;;;;;;4.97;1.90;;;;;;;13.63;50.81;100911.88;5033672;28;20060;-68
2022/01/07 08:46:32;;;;;;;4.70;1.60;;;;;;;13.62;50.81;100913.59;5032819;28;20029;-66
2022/01/07 08:48:59;;;;;;;4.90;1.85;;;;;;;13.62;51.04;100925.66;5028579;28;20048;-68
2022/01/07 08:51:26;;;;;;;6.43;2.15;;;;;;;13.61;51.18;100921.34;5015032;28;20472;-68
2022/01/07 08:53:52;;;;;;;4.13;2.10;;;;;;;13.62;51.01;100923.06;5032778;28;20027;-68
2022/01/07 08:56:18;;;;;;;6.45;2.10;;;;;;;13.62;51.02;100923.06;5032724;28;20272;-68
2022/01/07 08:58:43;;;;;;;4.32;2.08;;;;;;;13.61;50.94;100929.13;5032391;28;20480;-66
2022/01/07 09:01:09;;;;;;;6.47;2.08;;;;;;;13.61;51.07;100936.88;5031827;28;20033;-67
2022/01/07 09:03:34;;;;;;;5.00;1.90;;;;;;;13.61;51.14;100936.88;5031969;28;20036;-67
2022/01/07 09:06:00;;;;;;;5.63;2.03;;;;;;;13.60;51.01;100930.81;5032852;28;20029;-68
2022/01/07 09:08:25;;;;;;;4.50;2.13;;;;;;;13.60;51.16;100919.59;5032470;28;20032;-69
2022/01/07 09:10:51;;;;;;;4.00;2.10;;;;;;;13.60;50.98;100924.78;5032768;28;20037;-68
2022/01/07 09:13:19;;;;;;;3.88;1.80;;;;;;;13.60;51.22;100917.88;5032959;28;20467;-68
2022/01/07 09:15:46;;;;;;;4.55;1.90;;;;;;;13.62;51.13;100920.47;5032053;28;20048;-68
2022/01/07 09:18:14;;;;;;;6.43;2.23;;;;;;;13.63;51.12;100917.94;5031607;28;20088;-69
2022/01/07 09:20:41;;;;;;;5.32;2.10;;;;;;;13.64;50.97;100917.06;5032595;28;20438;-70
2022/01/07 09:23:07;;;;;;;;;;;;;;;13.66;51.44;100912.81;5032501;28;20084;-68
2022/01/07 09:25:33;;;;;;;6.22;2.33;;;;;;;13.68;51.04;100918.00;5029049;28;19971;-69
2022/01/07 09:27:58;;;;;;;6.18;2.22;;;;;;;13.69;50.79;100912.00;5023349;28;20029;-69
2022/01/07 09:30:25;;;;;;;5.53;2.33;;;;;;;13.71;50.96;100909.41;5035505;28;20365;-67
2022/01/07 09:32:50;;;;;;;6.95;2.70;;;;;;;13.71;50.98;100923.25;5035240;28;20108;-69
2022/01/07 09:35:16;;;;;;;4.90;2.28;;;;;;;13.71;50.99;100920.66;5035200;28;20137;-69
2022/01/07 09:37:42;;;;;;;7.43;2.75;;;;;;;13.71;50.68;100918.09;5035858;28;20377;-69
2022/01/07 09:40:09;;;;;;;5.60;2.50;;;;;;;13.74;50.51;100922.44;5036274;28;20045;-69
2022/01/07 09:42:35;;;;;;;6.07;2.60;;;;;;;13.74;50.64;100918.13;5035901;28;20026;-69
2022/01/07 09:45:00;;;;;;;7.68;3.38;;;;;;;13.75;50.78;100913.81;5036121;28;20032;-68
2022/01/07 09:47:27;;;;;;;6.75;2.90;;;;;;;13.75;50.79;100904.34;5018583;28;20373;-68
2022/01/07 09:49:53;;;;;;;6.63;2.42;;;;;;;13.76;50.50;100913.84;5036382;28;20048;-69
2022/01/07 09:52:18;;;;;;;5.25;2.42;;;;;;;13.76;50.57;100910.38;5035723;28;20034;-66
2022/01/07 09:54:43;;;;;;;6.35;2.88;;;;;;;13.75;50.51;100913.81;5036523;28;20029;-67
2022/01/07 09:57:09;;;;;;;5.38;2.60;;;;;;;13.76;50.52;100906.09;5036432;28;20117;-68
2022/01/07 09:59:36;;;;;;;6.47;3.03;;;;;;;13.76;50.64;100906.09;5036762;28;20140;-69
2022/01/07 10:02:09;;;;;;;3.80;2.08;;;;;;;13.76;50.64;100906.09;5036146;28;20034;-70
2022/01/07 10:04:37;;;;;;;4.88;2.22;;;;;;;13.75;50.62;100903.44;5018845;28;20025;-69
2022/01/07 10:07:23;;;;;;;6.20;2.55;;;;;;;13.74;50.94;100905.16;5036725;28;20055;-68
2022/01/07 10:10:00;;;;;;;4.95;2.33;;;;;;;13.73;50.82;100906.00;5036201;28;20028;-68
2022/01/07 10:12:27;;;;;;;5.78;2.30;;;;;;;13.73;50.71;100900.84;5034690;28;20425;-67
2022/01/07 10:15:22;;;;;;;7.15;2.25;;;;;;;13.72;50.99;100896.50;5035275;28;20060;-67
2022/01/07 10:17:57;;;;;;;6.90;2.75;;;;;;;13.72;50.71;100899.09;5023568;28;20053;-68
2022/01/07 10:20:28;;;;;;;5.30;2.47;;;;;;;13.71;50.81;100897.38;5036343;28;20033;-68
2022/01/07 10:23:05;;;;;;;3.78;2.00;;;;;;;13.71;50.78;100897.38;5036229;28;20060;-67
2022/01/07 10:25:34;;;;;;;4.43;2.15;;;;;;;13.71;50.78;100888.69;5036596;28;20030;-68
2022/01/07 10:28:15;;;;;;;4.97;2.40;;;;;;;13.71;50.73;100891.28;5035996;28;20029;-68
2022/01/07 10:30:54;;;;;;;6.55;2.70;;;;;;;13.69;50.85;100890.41;5036118;28;20036;-68
2022/01/07 10:33:20;;;;;;;5.53;2.40;;;;;;;13.68;51.19;100879.16;5034852;28;20125;-67
2022/01/07 10:35:51;;;;;;;5.55;2.28;;;;;;;13.66;51.01;100884.31;5035889;28;20119;-68
2022/01/07 10:38:19;;;;;;;5.57;2.22;;;;;;;13.66;50.82;100891.22;5035827;28;20042;-68
2022/01/07 10:40:47;;;;;;;6.90;2.25;;;;;;;13.66;51.08;100883.47;5036107;28;20391;-69
2022/01/07 10:43:12;;;;;;;;;;;;;;;13.67;51.44;100885.19;5036145;28;20045;-67
2022/01/07 10:45:43;;;;;;;6.97;2.17;;;;;;;13.64;50.95;100886.00;5036007;28;19913;-68
2022/01/07 10:48:09;;;;;;;7.22;2.35;;;;;;;13.65;50.88;100876.53;5017837;28;20026;-67
2022/01/07 10:50:40;;;;;;;7.28;2.42;;;;;;;13.64;51.07;100878.22;5036357;28;20037;-67
2022/01/07 10:53:16;;;;;;;5.38;2.08;;;;;;;13.65;50.95;100869.63;5035775;28;20448;-67
2022/01/07 10:56:02;;;;;;;5.90;2.58;;;;;;;13.67;51.02;100869.63;5035881;28;20037;-67
2022/01/07 10:58:28;;;;;;;6.80;2.33;;;;;;;13.68;50.74;100873.97;5034849;28;20060;-67
2022/01/07 11:00:54;;;;;;;6.00;2.65;;;;;;;13.70;50.68;100861.03;5035410;28;20056;-67
2022/01/07 11:03:20;;;;;;;4.90;2.35;;;;;;;13.70;50.82;100863.63;5035857;28;20033;-67
2022/01/07 11:05:46;;;;;;;4.85;2.38;;;;;;;13.70;50.76;100861.94;5035183;28;20038;-67
2022/01/07 11:08:14;;;;;;;4.95;2.13;;;;;;;13.69;50.83;100851.56;5017611;28;20538;-67
2022/01/07 11:10:41;;;;;;;6.22;2.58;;;;;;;13.70;50.73;100854.16;5031984;28;20456;-67
2022/01/07 11:13:08;;;;;;;5.43;2.30;;;;;;;13.69;50.74;100860.19;5034768;28;20029;-66
2022/01/07 11:15:33;;;;;;;5.30;2.42;;;;;;;13.69;50.74;100857.59;5035004;28;20021;-67
2022/01/07 11:17:58;;;;;;;7.35;2.40;;;;;;;13.69;50.70;100862.78;5034679;28;20025;-67
2022/01/07 11:20:24;;;;;;;4.72;2.10;;;;;;;13.69;50.96;100857.59;5034049;28;20116;-67
2022/01/07 11:22:54;;;;;;;4.95;2.60;;;;;;;13.68;50.91;100871.38;5016652;28;20042;-67
2022/01/07 11:25:31;;;;;;;4.72;2.15;;;;;;;13.69;51.01;100870.56;5032412;28;20022;-67
2022/01/07 11:27:58;;;;;;;6.22;2.35;;;;;;;13.67;50.80;100867.06;5031459;28;20018;-67
2022/01/07 11:30:28;;;;;;;4.47;2.30;;;;;;;13.67;50.84;100869.63;5016478;28;20033;-66
2022/01/07 11:32:54;;;;;;;8.15;2.28;;;;;;;13.66;50.92;100858.41;5033416;28;20400;-66
2022/01/07 11:35:19;;;;;;;5.80;2.60;;;;;;;13.67;50.83;100861.88;5033909;28;20026;-67